createdAt,value
2023-02-11T00:04:03.840Z,-2.61
2023-02-11T00:08:08.112Z,-2.56
2023-02-11T00:12:10.238Z,-2.52
2023-02-11T00:16:14.471Z,-2.63
2023-02-11T00:20:16.506Z,-2.71
2023-02-11T00:24:18.674Z,-2.63
2023-02-11T00:28:20.819Z,-2.67
2023-02-11T00:32:22.830Z,-2.76
2023-02-11T00:36:27.456Z,-3.12
2023-02-11T00:40:29.397Z,-2.96
2023-02-11T00:44:31.427Z,-2.97
2023-02-11T00:48:33.751Z,-2.92
2023-02-11T00:52:36.068Z,-2.85
2023-02-11T00:56:38.337Z,-2.70
2023-02-11T01:00:40.390Z,-2.84
2023-02-11T01:04:43.334Z,-3.04
2023-02-11T01:08:45.516Z,-3.00
2023-02-11T01:12:48.093Z,-2.87
2023-02-11T01:16:50.336Z,-2.83
2023-02-11T01:20:52.965Z,-2.83
2023-02-11T01:24:55.814Z,-3.12
2023-02-11T01:29:00.200Z,-3.17
2023-02-11T01:33:02.886Z,-3.45
2023-02-11T01:37:05.207Z,-3.49
2023-02-11T01:41:09.740Z,-3.42
2023-02-11T01:45:30.393Z,-3.28
2023-02-11T01:49:42.804Z,-3.21
2023-02-11T01:54:04.441Z,-3.25
2023-02-11T01:58:06.765Z,-3.26
2023-02-11T02:02:12.010Z,-3.23
2023-02-11T02:06:23.032Z,-3.29
2023-02-11T02:10:26.671Z,-3.30
2023-02-11T02:14:29.853Z,-3.43
2023-02-11T02:18:51.233Z,-3.42
2023-02-11T02:23:02.861Z,-3.54
2023-02-11T02:27:14.126Z,-3.56
2023-02-11T02:31:34.560Z,-3.60
2023-02-11T02:35:48.511Z,-3.78
2023-02-11T02:39:50.890Z,-3.74
2023-02-11T02:43:53.637Z,-3.80
2023-02-11T02:47:55.715Z,-3.82
2023-02-11T02:51:58.189Z,-3.79
2023-02-11T02:56:19.115Z,-3.77
2023-02-11T03:00:32.333Z,-4.29
2023-02-11T03:04:49.258Z,-4.14
2023-02-11T03:09:01.031Z,-4.11
2023-02-11T03:13:06.108Z,-3.98
2023-02-11T03:17:08.789Z,-3.87
2023-02-11T03:21:11.270Z,-3.82
2023-02-11T03:25:13.772Z,-3.75
2023-02-11T03:29:31.256Z,-3.78
2023-02-11T03:33:54.894Z,-3.75
2023-02-11T03:37:59.806Z,-3.65
2023-02-11T03:42:03.007Z,-3.73
2023-02-11T03:46:05.581Z,-3.72
2023-02-11T03:50:10.231Z,-3.88
2023-02-11T03:54:15.078Z,-4.26
2023-02-11T03:58:17.313Z,-4.32
2023-02-11T04:02:19.779Z,-4.17
2023-02-11T04:06:21.822Z,-4.03
2023-02-11T04:10:23.947Z,-3.97
2023-02-11T04:14:25.946Z,-3.89
2023-02-11T04:18:27.998Z,-3.88
2023-02-11T04:22:30.415Z,-3.88
2023-02-11T04:26:32.866Z,-3.87
2023-02-11T04:30:35.117Z,-3.91
2023-02-11T04:34:37.600Z,-3.99
2023-02-11T04:38:39.634Z,-4.04
2023-02-11T04:42:41.651Z,-4.01
2023-02-11T04:46:43.690Z,-4.04
2023-02-11T04:50:45.775Z,-3.96
2023-02-11T04:54:54.168Z,-3.90
2023-02-11T04:58:57.345Z,-4.00
2023-02-11T05:02:59.332Z,-3.97
2023-02-11T05:07:01.256Z,-4.04
2023-02-11T05:11:03.539Z,-4.17
2023-02-11T05:15:05.721Z,-4.19
2023-02-11T05:19:07.697Z,-4.23
2023-02-11T05:23:10.059Z,-4.35
2023-02-11T05:27:12.040Z,-4.29
2023-02-11T05:31:15.006Z,-4.45
2023-02-11T05:35:17.885Z,-4.68
2023-02-11T05:39:19.807Z,-4.59
2023-02-11T05:43:22.202Z,-4.88
2023-02-11T05:47:24.219Z,-4.88
2023-02-11T05:51:26.362Z,-4.64
2023-02-11T05:55:28.424Z,-4.77
2023-02-11T05:59:30.500Z,-4.60
2023-02-11T06:03:32.751Z,-4.51
2023-02-11T06:07:34.801Z,-4.49
2023-02-11T06:11:36.861Z,-4.38
2023-02-11T06:15:52.965Z,-4.40
2023-02-11T06:19:55.227Z,-4.34
2023-02-11T06:23:57.362Z,-4.28
2023-02-11T06:33:36.606Z,-4.38
2023-02-11T06:37:38.785Z,-4.29
2023-02-11T06:41:41.108Z,-4.22
2023-02-11T06:45:43.482Z,-4.11
2023-02-11T06:49:45.996Z,-4.05
2023-02-11T06:53:48.272Z,-4.00
2023-02-11T06:57:50.424Z,-3.97
2023-02-11T07:01:52.508Z,-4.01
2023-02-11T07:05:54.562Z,-4.43
2023-02-11T07:09:56.987Z,-4.27
2023-02-11T07:14:08.553Z,-3.86
2023-02-11T07:18:12.471Z,-3.63
2023-02-11T07:22:16.100Z,-3.38
2023-02-11T07:26:19.826Z,-3.09
2023-02-11T07:30:22.276Z,-2.86
2023-02-11T07:34:25.080Z,-2.66
2023-02-11T07:38:27.346Z,-2.53
2023-02-11T07:42:29.417Z,-2.32
2023-02-11T07:46:32.357Z,-2.14
2023-02-11T07:50:34.454Z,-2.01
2023-02-11T07:54:37.158Z,-1.82
2023-02-11T07:58:42.631Z,-1.65
2023-02-11T08:02:44.807Z,-1.41
2023-02-11T08:06:46.871Z,-1.20
2023-02-11T08:10:49.140Z,-1.00
2023-02-11T08:14:51.684Z,-0.83
2023-02-11T08:18:55.565Z,-0.62
2023-02-11T08:22:57.550Z,-0.37
2023-02-11T08:26:59.551Z,-0.12
2023-02-11T08:31:05.282Z,0.08
2023-02-11T08:35:08.151Z,0.32
2023-02-11T08:39:21.120Z,0.47
2023-02-11T08:43:23.751Z,0.70
2023-02-11T08:47:25.887Z,0.97
2023-02-11T08:51:31.559Z,1.23
2023-02-11T08:55:33.773Z,1.46
2023-02-11T08:59:35.898Z,1.59
2023-02-11T09:03:38.194Z,1.75
2023-02-11T09:07:40.140Z,1.98
2023-02-11T09:11:42.960Z,2.15
2023-02-11T09:15:45.888Z,2.39
2023-02-11T09:19:47.969Z,2.46
2023-02-11T09:23:50.080Z,2.64
2023-02-11T09:27:53.904Z,2.79
2023-02-11T09:31:56.069Z,2.98
2023-02-11T09:36:00.285Z,3.23
2023-02-11T09:40:02.469Z,3.36
2023-02-11T09:44:06.114Z,3.47
2023-02-11T09:48:16.442Z,3.71
2023-02-11T09:52:32.465Z,3.99
2023-02-11T09:56:34.614Z,4.12
2023-02-11T10:00:54.273Z,4.29
2023-02-11T10:05:10.886Z,4.69
2023-02-11T10:09:23.202Z,4.94
2023-02-11T10:13:43.527Z,5.18
2023-02-11T10:17:46.647Z,5.30
2023-02-11T10:21:50.680Z,5.44
2023-02-11T10:25:54.766Z,5.58
2023-02-11T10:30:06.923Z,5.71
2023-02-11T10:34:14.283Z,5.98
2023-02-11T10:38:16.340Z,6.13
2023-02-11T10:42:18.571Z,6.34
2023-02-11T10:46:27.200Z,6.39
2023-02-11T10:50:30.850Z,6.51
2023-02-11T10:54:33.075Z,6.65
2023-02-11T10:58:40.906Z,6.79
2023-02-11T11:02:44.710Z,7.00
2023-02-11T11:06:46.939Z,7.16
2023-02-11T11:11:03.824Z,7.32
2023-02-11T11:15:09.994Z,7.41
2023-02-11T11:19:21.284Z,7.45
2023-02-11T11:23:24.876Z,7.75
2023-02-11T11:27:27.078Z,8.01
2023-02-11T11:31:31.990Z,8.02
2023-02-11T11:35:34.261Z,8.16
2023-02-11T11:39:36.529Z,8.27
2023-02-11T11:43:38.716Z,8.44
2023-02-11T11:47:43.973Z,8.53
2023-02-11T11:51:52.037Z,8.72
2023-02-11T11:56:00.336Z,8.74
2023-02-11T12:00:02.450Z,8.70
2023-02-11T12:04:26.852Z,8.82
2023-02-11T12:08:34.853Z,9.07
2023-02-11T12:12:55.599Z,9.22
2023-02-11T12:17:02.631Z,9.35
2023-02-11T12:21:23.102Z,9.39
2023-02-11T12:25:25.156Z,9.62
2023-02-11T12:29:27.150Z,9.62
2023-02-11T12:33:29.300Z,9.79
2023-02-11T12:37:41.939Z,9.98
2023-02-11T12:42:05.710Z,10.11
2023-02-11T12:46:21.269Z,10.22
2023-02-11T12:50:23.395Z,10.40
2023-02-11T12:54:25.800Z,10.62
2023-02-11T12:58:44.031Z,10.67
2023-02-11T13:03:04.682Z,10.89
2023-02-11T13:07:19.527Z,10.94
2023-02-11T13:11:26.269Z,10.99
2023-02-11T13:15:30.372Z,11.08
2023-02-11T13:19:42.694Z,11.33
2023-02-11T13:23:51.149Z,11.45
2023-02-11T13:27:59.702Z,11.66
2023-02-11T13:32:09.650Z,11.82
2023-02-11T13:36:16.825Z,11.97
2023-02-11T13:40:18.824Z,12.10
2023-02-11T13:44:25.262Z,12.24
2023-02-11T13:48:36.108Z,12.15
2023-02-11T13:52:39.005Z,12.05
2023-02-11T13:56:44.142Z,12.13
2023-02-11T14:00:47.671Z,12.06
2023-02-11T14:05:23.854Z,12.25
2023-02-11T14:09:36.639Z,12.34
2023-02-11T14:13:58.819Z,12.32
2023-02-11T14:18:00.976Z,12.55
2023-02-11T14:22:13.661Z,12.59
2023-02-11T14:26:21.747Z,12.78
2023-02-11T14:30:46.140Z,12.86
2023-02-11T14:35:06.740Z,12.98
2023-02-11T14:39:08.912Z,12.96
2023-02-11T14:43:18.248Z,12.95
2023-02-11T14:47:23.513Z,12.90
2023-02-11T14:51:27.283Z,12.86
2023-02-11T14:55:34.144Z,12.80
2023-02-11T14:59:36.787Z,12.81
2023-02-11T15:03:40.308Z,12.62
2023-02-11T15:07:47.207Z,12.57
2023-02-11T15:11:50.711Z,12.51
2023-02-11T15:15:56.883Z,12.53
2023-02-11T15:20:00.904Z,12.46
2023-02-11T15:24:06.254Z,12.32
2023-02-11T15:28:14.854Z,12.22
2023-02-11T15:32:18.557Z,12.04
2023-02-11T15:36:28.003Z,11.89
2023-02-11T15:40:35.313Z,11.81
2023-02-11T15:44:38.258Z,11.65
2023-02-11T15:48:52.210Z,11.46
2023-02-11T15:53:01.410Z,11.25
2023-02-11T15:57:05.323Z,11.04
2023-02-11T16:01:08.279Z,10.83
2023-02-11T16:05:25.825Z,10.60
2023-02-11T16:09:33.178Z,10.37
2023-02-11T16:13:45.654Z,10.18
2023-02-11T16:17:49.686Z,9.88
2023-02-11T16:21:52.267Z,9.64
2023-02-11T16:25:58.598Z,9.36
2023-02-11T16:30:00.911Z,9.12
2023-02-11T16:34:03.240Z,8.76
2023-02-11T16:38:05.418Z,8.38
2023-02-11T16:42:08.125Z,8.02
2023-02-11T16:46:14.208Z,7.79
2023-02-11T16:50:21.677Z,7.47
2023-02-11T16:54:24.015Z,7.11
2023-02-11T16:58:26.215Z,6.86
2023-02-11T17:02:29.554Z,6.61
2023-02-11T17:06:32.927Z,6.34
2023-02-11T17:10:35.217Z,6.08
2023-02-11T17:14:37.207Z,5.95
2023-02-11T17:18:39.430Z,5.81
2023-02-11T17:22:41.693Z,5.67
2023-02-11T17:26:44.827Z,5.16
2023-02-11T17:30:46.900Z,4.79
2023-02-11T17:34:49.075Z,4.64
2023-02-11T17:38:51.958Z,4.46
2023-02-11T17:42:54.013Z,4.33
2023-02-11T17:46:57.133Z,4.24
2023-02-11T17:50:59.192Z,3.99
2023-02-11T17:55:01.389Z,3.85
2023-02-11T17:59:04.881Z,3.74
2023-02-11T18:03:06.887Z,3.55
2023-02-11T18:07:09.299Z,3.38
2023-02-11T18:11:12.467Z,3.35
2023-02-11T18:15:14.547Z,3.30
2023-02-11T18:19:16.619Z,2.98
2023-02-11T18:23:19.362Z,2.73
2023-02-11T18:27:22.120Z,2.69
2023-02-11T18:31:24.865Z,2.73
2023-02-11T18:35:28.072Z,2.50
2023-02-11T18:39:30.516Z,2.21
2023-02-11T18:43:33.839Z,2.22
2023-02-11T18:47:37.997Z,2.09
2023-02-11T18:51:40.258Z,1.68
2023-02-11T18:55:43.622Z,1.60
2023-02-11T18:59:45.748Z,1.50
2023-02-11T19:03:48.491Z,1.35
2023-02-11T19:07:50.576Z,1.40
2023-02-11T19:11:54.562Z,1.33
2023-02-11T19:15:56.770Z,1.30
2023-02-11T19:19:58.820Z,1.33
2023-02-11T19:24:02.409Z,1.41
2023-02-11T19:28:04.801Z,1.21
2023-02-11T19:32:07.122Z,0.94
2023-02-11T19:36:09.937Z,0.76
2023-02-11T19:40:12.478Z,0.70
2023-02-11T19:44:14.558Z,0.70
2023-02-11T19:48:16.682Z,0.30
2023-02-11T19:52:18.763Z,0.30
2023-02-11T19:56:21.109Z,0.33
2023-02-11T20:00:23.330Z,0.28
2023-02-11T20:04:26.559Z,0.17
2023-02-11T20:08:28.662Z,0.13
2023-02-11T20:12:30.749Z,0.04
2023-02-11T20:16:46.818Z,0.07
2023-02-11T20:20:50.232Z,-0.08
2023-02-11T20:24:53.684Z,0.07
2023-02-11T20:28:56.469Z,-0.01
2023-02-11T20:32:58.785Z,0.07
2023-02-11T20:37:00.983Z,-0.02
2023-02-11T20:41:13.938Z,-0.27
2023-02-11T20:45:16.091Z,-0.55
2023-02-11T20:49:19.753Z,-0.84
2023-02-11T20:53:22.588Z,-0.86
2023-02-11T20:57:24.808Z,-0.88
2023-02-11T21:01:28.528Z,-0.89
2023-02-11T21:05:31.044Z,-0.76
2023-02-11T21:09:33.888Z,-0.68
2023-02-11T21:13:36.903Z,-0.74
2023-02-11T21:17:38.902Z,-0.66
2023-02-11T21:21:40.934Z,-0.82
2023-02-11T21:25:43.125Z,-0.83
2023-02-11T21:29:53.732Z,-0.78
2023-02-11T21:33:59.551Z,-0.70
2023-02-11T21:38:01.640Z,-0.69
2023-02-11T21:42:03.808Z,-0.79
2023-02-11T21:46:10.102Z,-0.76
2023-02-11T21:50:12.212Z,-0.76
2023-02-11T21:54:14.563Z,-0.90
2023-02-11T21:58:17.039Z,-0.92
2023-02-11T22:02:19.305Z,-1.04
2023-02-11T22:06:31.113Z,-1.07
2023-02-11T22:10:33.273Z,-1.27
2023-02-11T22:14:35.861Z,-1.64
2023-02-11T22:18:38.341Z,-1.52
2023-02-11T22:22:40.461Z,-1.75
2023-02-11T22:26:42.639Z,-1.80
2023-02-11T22:30:44.896Z,-1.86
2023-02-11T22:34:47.120Z,-1.85
2023-02-11T22:38:49.440Z,-1.72
2023-02-11T22:42:51.493Z,-1.64
2023-02-11T22:46:53.885Z,-1.49
2023-02-11T22:50:56.035Z,-1.58
2023-02-11T22:55:00.579Z,-1.41
2023-02-11T22:59:07.132Z,-1.39
2023-02-11T23:03:12.501Z,-1.48
2023-02-11T23:07:15.012Z,-1.47
2023-02-11T23:11:19.188Z,-1.58
2023-02-11T23:15:21.711Z,-1.63
2023-02-11T23:19:24.135Z,-1.70
2023-02-11T23:23:26.562Z,-1.85
2023-02-11T23:27:29.338Z,-1.77
2023-02-11T23:31:34.275Z,-1.63
2023-02-11T23:35:36.765Z,-1.63
2023-02-11T23:39:38.979Z,-1.68
2023-02-11T23:43:41.230Z,-1.78
2023-02-11T23:47:43.378Z,-1.78
2023-02-11T23:51:45.638Z,-1.76
2023-02-11T23:55:47.857Z,-1.84
2023-02-11T23:59:50.717Z,-1.92
